WetterOnline ( https://www.wetteronline.de )

Wetter aktuell Thüringer Wald (in 800m)

Aktuelles Wetter: Neuhaus (851m)

6-stündlich | Neueste Meldungen
Ortszeit Temperatur Wetter
Do, 26.05. 2:00 10.6° C bedeckt
Mi, 25.05. 20:00 13.5° C fast wolkenlos
Mi, 25.05. 14:00 13.8° C leicht bewölkt
Mi, 25.05. 8:00 9.2° C bedeckt
Mi, 25.05. 2:00 7.5° C bewölkt
Di, 24.05. 20:00 12.7° C wolkenlos
Di, 24.05. 14:00 14.0° C bewölkt
Di, 24.05. 8:00 10.9° C bewölkt
Ortszeit Temperatur Wetter
Do, 26.05. 5:00 8.6° C fast wolkenlos
Do, 26.05. 4:40 8.9° C leicht bewölkt
Do, 26.05. 4:30 9.3° C bewölkt
Do, 26.05. 4:20 9.3° C bewölkt
Do, 26.05. 4:10 9.5° C bedeckt
Do, 26.05. 4:00 9.6° C bewölkt
Do, 26.05. 3:50 9.6° C bewölkt
Do, 26.05. 3:30 9.7° C bedeckt
Do, 26.05. 3:00 9.9° C bedeckt
Do, 26.05. 2:30 10.3° C bedeckt
Do, 26.05. 2:00 10.6° C bedeckt
Ortszeit Relative Feuchte Sichtweite
Do, 26.05. 2:00 62% >70 km
Mi, 25.05. 20:00 49% 65 km
Mi, 25.05. 14:00 54% >70 km
Mi, 25.05. 8:00 76% 65 km
Mi, 25.05. 2:00 83% >70 km
Di, 24.05. 20:00 62% 55 km
Di, 24.05. 14:00 72% 50 km
Di, 24.05. 8:00 96% 12 km
Ortszeit Relative Feuchte Sichtweite
Do, 26.05. 5:00 74% >70 km
Do, 26.05. 4:40 73% -
Do, 26.05. 4:30 70% >70 km
Do, 26.05. 4:20 70% -
Do, 26.05. 4:10 69% -
Do, 26.05. 4:00 69% >70 km
Do, 26.05. 3:50 69% -
Do, 26.05. 3:30 68% 65 km
Do, 26.05. 3:00 66% >70 km
Do, 26.05. 2:30 64% 65 km
Do, 26.05. 2:00 62% >70 km
Ortszeit Niederschlagsmenge Niederschlagsart
Do, 26.05. 2:00 0.0 l/m2 in 6 Std. -
Mi, 25.05. 20:00 0.0 l/m2 in 12 Std. -
Mi, 25.05. 14:00 0.0 l/m2 in 6 Std. -
Mi, 25.05. 8:00 0.0 l/m2 in 12 Std. -
Mi, 25.05. 2:00 0.0 l/m2 in 6 Std. -
Di, 24.05. 20:00 0.8 l/m2 in 12 Std. -
Di, 24.05. 14:00 0.8 l/m2 in 6 Std. Regen
Di, 24.05. 8:00 7 l/m2 in 12 Std. Regen
Ortszeit Niederschlagsmenge Niederschlagsart
Do, 26.05. 5:00 0.0 l/m2 in 1 Std. Regen
Do, 26.05. 4:40 keine Meldung -
Do, 26.05. 4:30 0.0 l/m2 in 1 Std. -
Do, 26.05. 4:20 keine Meldung -
Do, 26.05. 4:10 keine Meldung -
Do, 26.05. 4:00 0.1 l/m2 in 1 Std. Regen
Do, 26.05. 3:50 keine Meldung -
Do, 26.05. 3:30 0.0 l/m2 in 1 Std. -
Do, 26.05. 3:00 0.0 l/m2 in 1 Std. -
Do, 26.05. 2:30 0.0 l/m2 in 1 Std. -
Do, 26.05. 2:00 0.0 l/m2 in 1 Std. -
Ortszeit Stärke Spitze Richtung
km/h Bft. km/h Grad Sektor
Do, 26.05. 2:00 15 3 31 240° SW
Mi, 25.05. 20:00 14 3 50 250° W
Mi, 25.05. 14:00 18 3 36 240° SW
Mi, 25.05. 8:00 6 1 13 270° W
Mi, 25.05. 2:00 9 2 17 290° W
Di, 24.05. 20:00 11 2 43 250° W
Di, 24.05. 14:00 26 4 44 240° SW
Di, 24.05. 8:00 13 3 44 210° SW
Ortszeit Stärke Spitze Richtung
km/h Bft. km/h Grad Sektor
Do, 26.05. 5:00 9 2 26 230° SW
Do, 26.05. 4:40 9 2 - 230° SW
Do, 26.05. 4:30 13 3 26 240° SW
Do, 26.05. 4:20 13 3 - 240° SW
Do, 26.05. 4:10 14 3 - 230° SW
Do, 26.05. 4:00 17 3 28 230° SW
Do, 26.05. 3:50 17 3 - 230° SW
Do, 26.05. 3:30 17 3 26 230° SW
Do, 26.05. 3:00 18 3 36 230° SW
Do, 26.05. 2:30 20 4 35 240° SW
Do, 26.05. 2:00 15 3 31 240° SW
Ortszeit Untergrenze Bedeckung Gattung
total tief tief mittel hoch
Do, 26.05. 2:00 2700 m 8/8 8/8 - - -
Mi, 25.05. 20:00 7500 m 1/8 0/8 - - -
Mi, 25.05. 14:00 1110 m 4/8 4/8 - - -
Mi, 25.05. 8:00 3600 m 8/8 8/8 - - -
Mi, 25.05. 2:00 2100 m 7/8 7/8 - - -
Di, 24.05. 20:00 - 0/8 0/8 - - -
Di, 24.05. 14:00 690 m 7/8 7/8 - - -
Di, 24.05. 8:00 60 m 7/8 7/8 - - -
Ortszeit Bedeckungsgrad in Achtel und Wolkenuntergrenze
Do, 26.05. 5:00 1(1320m)
Do, 26.05. 4:40 3
Do, 26.05. 4:30 7(2400m)
Do, 26.05. 4:20 7(2400m)
Do, 26.05. 4:10 8
Do, 26.05. 4:00 7(2400m)
Do, 26.05. 3:50 7(2400m)
Do, 26.05. 3:30 8(2400m)
Do, 26.05. 3:00 8(2700m)
Do, 26.05. 2:30 3(2400m) 8(2700m)
Do, 26.05. 2:00 8(2700m)
Ortszeit Stationsdruck (hPa) Tendenz (hPa in 3 Std.)
Do, 26.05. 2:00 921 + 0,1
Mi, 25.05. 20:00 920 + 1,0
Mi, 25.05. 14:00 919 + 0,3
Mi, 25.05. 8:00 917 + 1,4
Mi, 25.05. 2:00 916 + 0,5
Di, 24.05. 20:00 913 + 1,1
Di, 24.05. 14:00 911 + 1,8
Di, 24.05. 8:00 908 + 1,0
Ortszeit Stationsdruck (hPa) Tendenz (hPa in 3 Std.)
Do, 26.05. 5:00 921 + 0,1
Do, 26.05. 4:40 921 keine Meldung
Do, 26.05. 4:30 921 + 0,2
Do, 26.05. 4:20 921 keine Meldung
Do, 26.05. 4:10 921 keine Meldung
Do, 26.05. 4:00 921 + 0,1
Do, 26.05. 3:50 921 keine Meldung
Do, 26.05. 3:30 921 + 0,3
Do, 26.05. 3:00 921 + 0,2
Do, 26.05. 2:30 921 0,0
Do, 26.05. 2:00 921 + 0,1
Ortszeit Schneehöhe (cm)
Do, 26.05. 2:00 0
Mi, 25.05. 20:00 0
Mi, 25.05. 14:00 0
Mi, 25.05. 8:00 0
Mi, 25.05. 2:00 0
Di, 24.05. 20:00 0
Di, 24.05. 14:00 0
Di, 24.05. 8:00 0
Ortszeit Schneehöhe (cm)
Do, 26.05. 5:00 0
Do, 26.05. 4:40 0
Do, 26.05. 4:30 0
Do, 26.05. 4:20 0
Do, 26.05. 4:10 0
Do, 26.05. 4:00 0
Do, 26.05. 3:50 0
Do, 26.05. 3:30 0
Do, 26.05. 3:00 0
Do, 26.05. 2:30 0
Do, 26.05. 2:00 0
Link zu dieser Seite / Seite empfehlen

Das Wetter in ...